createdAt,value
2018-12-23T00:01:56.030Z,1017.69
2018-12-23T00:02:55.989Z,1017.64
2018-12-23T00:04:48.880Z,1017.58
2018-12-23T00:05:48.788Z,1017.57
2018-12-23T00:07:52.789Z,1017.67
2018-12-23T00:08:52.693Z,1017.65
2018-12-23T00:10:56.707Z,1017.60
2018-12-23T00:11:56.600Z,1017.66
2018-12-23T00:14:00.610Z,1017.73
2018-12-23T00:15:00.511Z,1017.70
2018-12-23T00:17:04.519Z,1017.73
2018-12-23T00:18:04.419Z,1017.71
2018-12-23T00:20:08.429Z,1017.75
2018-12-23T00:21:08.330Z,1017.75
2018-12-23T00:23:12.339Z,1017.85
2018-12-23T00:24:12.309Z,1017.83
2018-12-23T00:26:16.248Z,1017.76
2018-12-23T00:27:16.159Z,1017.75
2018-12-23T00:29:20.089Z,1017.69
2018-12-23T00:30:20.118Z,1017.67
2018-12-23T00:32:24.066Z,1017.61
2018-12-23T00:33:25.530Z,1017.64
2018-12-23T00:35:27.980Z,1017.60
2018-12-23T00:36:27.890Z,1017.59
2018-12-23T00:38:31.880Z,1017.55
2018-12-23T00:39:31.787Z,1017.56
2018-12-23T00:41:36.758Z,1017.56
2018-12-23T00:42:36.689Z,1017.62
2018-12-23T00:44:29.567Z,1017.58
2018-12-23T00:45:29.538Z,1017.58
2018-12-23T00:47:34.399Z,1017.60
2018-12-23T00:48:34.297Z,1017.59
2018-12-23T00:50:38.257Z,1017.62
2018-12-23T00:51:38.218Z,1017.61
2018-12-23T00:53:42.230Z,1017.56
2018-12-23T00:54:42.119Z,1017.56
2018-12-23T00:56:46.140Z,1017.66
2018-12-23T00:57:46.078Z,1017.68
2018-12-23T00:59:50.037Z,1017.70
2018-12-23T01:00:49.941Z,1017.81
2018-12-23T01:02:53.961Z,1017.86
2018-12-23T01:03:53.847Z,1017.85
2018-12-23T01:05:57.859Z,1017.89
2018-12-23T01:06:57.771Z,1017.85
2018-12-23T01:09:01.779Z,1017.87
2018-12-23T01:10:01.701Z,1017.86
2018-12-23T01:12:05.630Z,1017.87
2018-12-23T01:13:05.588Z,1017.86
2018-12-23T01:15:09.585Z,1017.81
2018-12-23T01:16:09.497Z,1017.79
2018-12-23T01:18:13.499Z,1017.73
2018-12-23T01:19:13.399Z,1017.74
2018-12-23T01:21:17.417Z,1017.85
2018-12-23T01:22:17.310Z,1017.79
2018-12-23T01:24:10.267Z,1017.83
2018-12-23T01:25:10.168Z,1017.85
2018-12-23T01:27:14.169Z,1017.83
2018-12-23T01:28:14.150Z,1017.84
2018-12-23T01:30:18.087Z,1017.94
2018-12-23T01:31:17.988Z,1017.99
2018-12-23T01:33:21.938Z,1018.03
2018-12-23T01:34:21.897Z,1018.05
2018-12-23T01:36:25.899Z,1018.02
2018-12-23T01:37:25.807Z,1017.98
2018-12-23T01:39:29.808Z,1018.08
2018-12-23T01:40:29.717Z,1018.14
2018-12-23T01:42:33.719Z,1018.11
2018-12-23T01:43:33.627Z,1018.16
2018-12-23T01:45:37.630Z,1018.23
2018-12-23T01:46:37.537Z,1018.27
2018-12-23T01:48:41.560Z,1018.26
2018-12-23T01:49:41.509Z,1018.30
2018-12-23T01:51:45.389Z,1018.30
2018-12-23T01:52:45.417Z,1018.28
2018-12-23T01:54:38.238Z,1018.25
2018-12-23T01:55:38.219Z,1018.28
2018-12-23T01:57:42.208Z,1018.25
2018-12-23T01:58:42.117Z,1018.27
2018-12-23T02:00:46.118Z,1018.28
2018-12-23T02:01:46.039Z,1018.23
2018-12-23T02:03:50.028Z,1018.20
2018-12-23T02:04:49.926Z,1018.21
2018-12-23T02:06:53.941Z,1018.20
2018-12-23T02:07:53.849Z,1018.19
2018-12-23T02:09:57.848Z,1018.20
2018-12-23T02:10:57.830Z,1018.21
2018-12-23T02:13:01.789Z,1018.20
2018-12-23T02:14:01.658Z,1018.28
2018-12-23T02:16:05.610Z,1018.24
2018-12-23T02:17:05.639Z,1018.22
2018-12-23T02:19:09.589Z,1018.19
2018-12-23T02:20:09.489Z,1018.23
2018-12-23T02:22:13.491Z,1018.28
2018-12-23T02:23:13.397Z,1018.32
2018-12-23T02:25:18.438Z,1018.38
2018-12-23T02:26:17.311Z,1018.34
2018-12-23T02:28:21.319Z,1018.29
2018-12-23T02:29:21.226Z,1018.27
2018-12-23T02:31:25.230Z,1018.29
2018-12-23T02:32:25.190Z,1018.30
2018-12-23T02:34:18.087Z,1018.30
2018-12-23T02:35:17.980Z,1018.33
2018-12-23T02:37:21.930Z,1018.31
2018-12-23T02:38:21.950Z,1018.30
2018-12-23T02:39:21.858Z,1018.28
2018-12-23T02:40:21.858Z,1018.24
2018-12-23T02:41:21.801Z,1018.21
2018-12-23T02:42:21.870Z,1018.22
2018-12-23T02:43:21.762Z,1018.25
2018-12-23T02:44:21.777Z,1018.23
2018-12-23T02:45:21.690Z,1018.23
2018-12-23T02:46:21.699Z,1018.26
2018-12-23T02:47:21.648Z,1018.25
2018-12-23T02:48:21.617Z,1018.23
2018-12-23T02:49:21.609Z,1018.25
2018-12-23T02:50:21.559Z,1018.21
2018-12-23T02:51:22.652Z,1018.23
2018-12-23T02:52:21.498Z,1018.23
2018-12-23T02:53:21.479Z,1018.22
2018-12-23T02:54:21.449Z,1018.19
2018-12-23T02:55:21.450Z,1018.17
2018-12-23T02:56:21.388Z,1018.12
2018-12-23T02:57:21.471Z,1018.12
2018-12-23T02:58:21.351Z,1018.12
2018-12-23T02:59:21.368Z,1018.12
2018-12-23T03:00:21.279Z,1018.14
2018-12-23T03:01:21.279Z,1018.15
2018-12-23T03:02:21.220Z,1018.16
2018-12-23T03:03:21.303Z,1018.16
2018-12-23T03:04:21.176Z,1018.20
2018-12-23T03:05:21.199Z,1018.25
2018-12-23T03:06:21.122Z,1018.25
2018-12-23T03:07:21.108Z,1018.24
2018-12-23T03:08:21.060Z,1018.23
2018-12-23T03:09:21.039Z,1018.20
2018-12-23T03:10:21.009Z,1018.15
2018-12-23T03:11:21.030Z,1018.08
2018-12-23T03:12:20.947Z,1018.10
2018-12-23T03:13:20.940Z,1018.12
2018-12-23T03:14:20.949Z,1018.12
2018-12-23T03:15:20.869Z,1018.12
2018-12-23T03:16:20.857Z,1018.09
2018-12-23T03:17:20.810Z,1018.08
2018-12-23T03:18:20.871Z,1018.04
2018-12-23T03:19:20.759Z,1018.05
2018-12-23T03:20:20.727Z,1018.08
2018-12-23T03:21:20.788Z,1018.10
2018-12-23T03:22:20.670Z,1018.14
2018-12-23T03:23:20.703Z,1018.15
2018-12-23T03:24:20.618Z,1018.14
2018-12-23T03:25:20.598Z,1018.12
2018-12-23T03:26:20.619Z,1018.06
2018-12-23T03:27:20.536Z,1018.00
2018-12-23T03:28:20.531Z,1018.00
2018-12-23T03:29:20.489Z,1018.00
2018-12-23T03:30:20.453Z,1017.96
2018-12-23T03:31:20.440Z,1018.02
2018-12-23T03:32:20.459Z,1018.01
2018-12-23T03:33:20.368Z,1018.02
2018-12-23T03:34:20.356Z,1018.03
2018-12-23T03:35:20.336Z,1018.08
2018-12-23T03:36:20.378Z,1018.07
2018-12-23T03:37:20.259Z,1018.08
2018-12-23T03:38:20.278Z,1018.08
2018-12-23T03:39:20.207Z,1018.07
2018-12-23T03:40:20.189Z,1018.03
2018-12-23T03:41:20.158Z,1018.02
2018-12-23T03:42:20.196Z,1018.08
2018-12-23T03:43:20.086Z,1018.09
2018-12-23T03:44:20.108Z,1018.06
2018-12-23T03:45:20.038Z,1018.06
2018-12-23T03:46:20.008Z,1018.02
2018-12-23T03:47:19.988Z,1018.02
2018-12-23T03:48:20.037Z,1018.02
2018-12-23T03:49:19.939Z,1017.97
2018-12-23T03:50:19.946Z,1017.98
2018-12-23T03:51:19.878Z,1017.94
2018-12-23T03:52:19.861Z,1017.91
2018-12-23T03:53:19.820Z,1017.91
2018-12-23T03:54:19.869Z,1017.96
2018-12-23T03:55:19.769Z,1017.94
2018-12-23T03:56:19.778Z,1017.97
2018-12-23T03:57:19.719Z,1018.04
2018-12-23T03:58:19.787Z,1018.00
2018-12-23T03:59:19.657Z,1018.02
2018-12-23T04:00:19.696Z,1017.97
2018-12-23T04:01:19.597Z,1018.00
2018-12-23T04:02:19.579Z,1017.93
2018-12-23T04:03:19.537Z,1017.91
2018-12-23T04:04:19.628Z,1017.94
2018-12-23T04:05:19.501Z,1017.94
2018-12-23T04:06:24.440Z,1017.96
2018-12-23T04:07:19.537Z,1017.98
2018-12-23T04:08:19.419Z,1017.95
2018-12-23T04:09:19.446Z,1017.96
2018-12-23T04:10:19.359Z,1018.00
2018-12-23T04:11:19.355Z,1017.96
2018-12-23T04:12:19.287Z,1017.97
2018-12-23T04:13:19.264Z,1017.94
2018-12-23T04:14:19.278Z,1017.95
2018-12-23T04:15:19.219Z,1017.96
2018-12-23T04:16:19.287Z,1017.93
2018-12-23T04:17:19.148Z,1017.89
2018-12-23T04:18:19.127Z,1017.92
2018-12-23T04:19:19.208Z,1017.84
2018-12-23T04:20:19.078Z,1017.82
2018-12-23T04:21:19.123Z,1017.84
2018-12-23T04:22:19.017Z,1017.88
2018-12-23T04:23:18.987Z,1017.84
2018-12-23T04:24:18.966Z,1017.85
2018-12-23T04:25:19.036Z,1017.88
2018-12-23T04:26:18.905Z,1017.87
2018-12-23T04:27:18.949Z,1017.87
2018-12-23T04:28:18.849Z,1017.83
2018-12-23T04:29:18.858Z,1017.83
2018-12-23T04:30:18.789Z,1017.90
2018-12-23T04:31:18.879Z,1017.86
2018-12-23T04:32:18.737Z,1017.86
2018-12-23T04:33:18.777Z,1017.83
2018-12-23T04:34:18.679Z,1017.83
2018-12-23T04:35:18.686Z,1017.75
2018-12-23T04:36:18.628Z,1017.81
2018-12-23T04:37:18.708Z,1017.78
2018-12-23T04:38:18.572Z,1017.72
2018-12-23T04:39:18.537Z,1017.78
2018-12-23T04:40:18.507Z,1017.78
2018-12-23T04:41:18.530Z,1017.82
2018-12-23T04:42:18.456Z,1017.76
2018-12-23T04:43:18.537Z,1017.77
2018-12-23T04:44:18.406Z,1017.71
2018-12-23T04:45:18.445Z,1017.73
2018-12-23T04:46:18.358Z,1017.71
2018-12-23T04:47:18.367Z,1017.70
2018-12-23T04:48:18.298Z,1017.72
2018-12-23T04:49:18.370Z,1017.74
2018-12-23T04:50:18.239Z,1017.75
2018-12-23T04:51:18.279Z,1017.71
2018-12-23T04:52:18.187Z,1017.73
2018-12-23T04:53:18.187Z,1017.71
2018-12-23T04:54:18.128Z,1017.72
2018-12-23T04:55:18.108Z,1017.69
2018-12-23T04:56:18.113Z,1017.69
2018-12-23T04:57:18.045Z,1017.69
2018-12-23T04:58:18.126Z,1017.66
2018-12-23T04:59:17.991Z,1017.67
2018-12-23T05:00:17.968Z,1017.67
2018-12-23T05:01:17.967Z,1017.61
2018-12-23T05:02:17.947Z,1017.61
2018-12-23T05:03:17.880Z,1017.66
2018-12-23T05:04:17.959Z,1017.66
2018-12-23T05:05:17.818Z,1017.63
2018-12-23T05:06:18.038Z,1017.63
2018-12-23T05:07:17.872Z,1017.59
2018-12-23T05:08:17.749Z,1017.53
2018-12-23T05:09:17.776Z,1017.54
2018-12-23T05:10:17.702Z,1017.59
2018-12-23T05:11:17.659Z,1017.50
2018-12-23T05:12:17.640Z,1017.53
2018-12-23T05:13:17.696Z,1017.53
2018-12-23T05:14:17.566Z,1017.57
2018-12-23T05:15:17.607Z,1017.57
2018-12-23T05:16:17.616Z,1017.51
2018-12-23T05:17:17.497Z,1017.55
2018-12-23T05:18:17.526Z,1017.55
2018-12-23T05:19:17.450Z,1017.56
2018-12-23T05:20:17.436Z,1017.53
2018-12-23T05:21:17.376Z,1017.52
2018-12-23T05:22:17.458Z,1017.53
2018-12-23T05:23:17.338Z,1017.59
2018-12-23T05:24:17.369Z,1017.57
2018-12-23T05:25:17.278Z,1017.60
2018-12-23T05:26:17.274Z,1017.59
2018-12-23T05:27:17.216Z,1017.62
2018-12-23T05:28:17.288Z,1017.58
2018-12-23T05:29:17.158Z,1017.61
2018-12-23T05:30:17.198Z,1017.52
2018-12-23T05:31:17.101Z,1017.61
2018-12-23T05:32:17.075Z,1017.58
2018-12-23T05:33:17.050Z,1017.59
2018-12-23T05:34:17.121Z,1017.61
2018-12-23T05:35:16.998Z,1017.58
2018-12-23T05:36:17.026Z,1017.51
2018-12-23T05:37:16.937Z,1017.57
2018-12-23T05:38:16.935Z,1017.59
2018-12-23T05:39:16.888Z,1017.56
2018-12-23T05:40:16.948Z,1017.54
2018-12-23T05:41:16.829Z,1017.57
2018-12-23T05:42:16.863Z,1017.53
2018-12-23T05:43:16.778Z,1017.59
2018-12-23T05:44:16.781Z,1017.57
2018-12-23T05:45:16.716Z,1017.54
2018-12-23T05:46:16.787Z,1017.59
2018-12-23T05:47:16.676Z,1017.60
2018-12-23T05:48:16.636Z,1017.60
2018-12-23T05:49:16.606Z,1017.59
2018-12-23T05:50:16.607Z,1017.54
2018-12-23T05:51:16.555Z,1017.52
2018-12-23T05:52:16.619Z,1017.58
2018-12-23T05:53:16.495Z,1017.55
2018-12-23T05:54:16.528Z,1017.50
2018-12-23T05:55:16.446Z,1017.45
2018-12-23T05:56:16.440Z,1017.46
2018-12-23T05:57:16.386Z,1017.47
2018-12-23T05:58:16.450Z,1017.50
2018-12-23T05:59:16.335Z,1017.52
2018-12-23T06:00:16.358Z,1017.56
2018-12-23T06:01:16.285Z,1017.54
2018-12-23T06:02:16.268Z,1017.56
2018-12-23T06:03:16.226Z,1017.49
2018-12-23T06:04:16.207Z,1017.47
2018-12-23T06:05:16.168Z,1017.50
2018-12-23T06:06:16.187Z,1017.51
2018-12-23T06:07:16.117Z,1017.49
2018-12-23T06:08:16.105Z,1017.47
2018-12-23T06:09:16.128Z,1017.49
2018-12-23T06:10:16.038Z,1017.47
2018-12-23T06:11:16.127Z,1017.47
2018-12-23T06:12:15.976Z,1017.44
2018-12-23T06:13:16.027Z,1017.46
2018-12-23T06:14:15.939Z,1017.46
2018-12-23T06:15:15.937Z,1017.47
2018-12-23T06:16:15.866Z,1017.43
2018-12-23T06:17:15.968Z,1017.47
2018-12-23T06:18:15.816Z,1017.49
2018-12-23T06:19:15.868Z,1017.48
2018-12-23T06:20:15.771Z,1017.51
2018-12-23T06:21:15.776Z,1017.47
2018-12-23T06:22:15.706Z,1017.44
2018-12-23T06:23:15.789Z,1017.49
2018-12-23T06:24:15.646Z,1017.54
2018-12-23T06:25:15.628Z,1017.47
2018-12-23T06:26:15.596Z,1017.51
2018-12-23T06:27:15.605Z,1017.52
2018-12-23T06:28:15.636Z,1017.52
2018-12-23T06:29:15.618Z,1017.52
2018-12-23T06:30:15.487Z,1017.53
2018-12-23T06:31:15.527Z,1017.55
2018-12-23T06:32:15.427Z,1017.54
2018-12-23T06:33:15.436Z,1017.53
2018-12-23T06:34:15.377Z,1017.54
2018-12-23T06:35:15.449Z,1017.57
2018-12-23T06:36:15.367Z,1017.59
2018-12-23T06:37:15.308Z,1017.53
2018-12-23T06:38:15.367Z,1017.52
2018-12-23T06:39:15.237Z,1017.52
2018-12-23T06:40:15.277Z,1017.51
2018-12-23T06:41:15.198Z,1017.52
2018-12-23T06:42:15.190Z,1017.51
2018-12-23T06:43:15.130Z,1017.53
2018-12-23T06:44:15.195Z,1017.47
2018-12-23T06:45:15.079Z,1017.48
2018-12-23T06:46:15.047Z,1017.45
2018-12-23T06:47:15.016Z,1017.45
2018-12-23T06:48:15.018Z,1017.42
2018-12-23T06:49:14.976Z,1017.43
2018-12-23T06:50:15.047Z,1017.44
2018-12-23T06:51:14.907Z,1017.47
2018-12-23T06:52:14.892Z,1017.46
2018-12-23T06:53:14.945Z,1017.41
2018-12-23T06:54:14.826Z,1017.44
2018-12-23T06:55:14.857Z,1017.45
2018-12-23T06:56:14.787Z,1017.48
2018-12-23T06:57:14.747Z,1017.46
2018-12-23T06:58:14.727Z,1017.39
2018-12-23T06:59:14.785Z,1017.40
2018-12-23T07:00:14.667Z,1017.36
2018-12-23T07:01:14.697Z,1017.40
2018-12-23T07:02:14.695Z,1017.36
2018-12-23T07:03:14.586Z,1017.39
2018-12-23T07:04:14.606Z,1017.37
2018-12-23T07:05:14.525Z,1017.38
2018-12-23T07:06:14.516Z,1017.38
2018-12-23T07:07:18.655Z,1017.35
2018-12-23T07:08:14.446Z,1017.37
2018-12-23T07:09:14.447Z,1017.39
2018-12-23T07:10:14.395Z,1017.34
2018-12-23T07:11:14.447Z,1017.35
2018-12-23T07:12:14.339Z,1017.36
2018-12-23T07:13:14.317Z,1017.37
2018-12-23T07:14:14.367Z,1017.30
2018-12-23T07:15:14.258Z,1017.30
2018-12-23T07:16:14.290Z,1017.32
2018-12-23T07:17:14.207Z,1017.34
2018-12-23T07:18:14.190Z,1017.30
2018-12-23T07:19:14.158Z,1017.31
2018-12-23T07:20:15.217Z,1017.28
2018-12-23T07:21:14.109Z,1017.31
2018-12-23T07:22:14.107Z,1017.28
2018-12-23T07:23:14.139Z,1017.28
2018-12-23T07:24:14.115Z,1017.32
2018-12-23T07:25:13.988Z,1017.33
2018-12-23T07:26:14.042Z,1017.34
2018-12-23T07:27:13.937Z,1017.36
2018-12-23T07:28:13.938Z,1017.36
2018-12-23T07:29:13.876Z,1017.32
2018-12-23T07:30:13.961Z,1017.34
2018-12-23T07:31:13.825Z,1017.37
2018-12-23T07:32:13.866Z,1017.36
2018-12-23T07:33:13.778Z,1017.36
2018-12-23T07:34:13.767Z,1017.40
2018-12-23T07:35:13.715Z,1017.37
2018-12-23T07:36:13.789Z,1017.38
2018-12-23T07:37:13.668Z,1017.40
2018-12-23T07:38:13.698Z,1017.35
2018-12-23T07:39:13.606Z,1017.31
2018-12-23T07:40:13.609Z,1017.30
2018-12-23T07:41:13.559Z,1017.28
2018-12-23T07:42:13.616Z,1017.24
2018-12-23T07:43:13.495Z,1017.26
2018-12-23T07:44:13.538Z,1017.18
2018-12-23T07:45:13.463Z,1017.22
2018-12-23T07:46:13.438Z,1017.17
2018-12-23T07:47:13.387Z,1017.22
2018-12-23T07:48:13.467Z,1017.20
2018-12-23T07:49:13.339Z,1017.15
2018-12-23T07:50:13.316Z,1017.19
2018-12-23T07:51:13.365Z,1017.17
2018-12-23T07:52:13.258Z,1017.19
2018-12-23T07:53:13.277Z,1017.15
2018-12-23T07:54:13.208Z,1017.15
2018-12-23T07:55:13.175Z,1017.16
2018-12-23T07:56:13.145Z,1017.13
2018-12-23T07:57:13.196Z,1017.16
2018-12-23T07:58:13.106Z,1017.16
2018-12-23T07:59:13.110Z,1017.18
2018-12-23T08:00:13.048Z,1017.16
2018-12-23T08:01:13.006Z,1017.17
2018-12-23T08:02:13.033Z,1017.14
2018-12-23T08:03:12.956Z,1017.18
2018-12-23T08:04:13.039Z,1017.13
2018-12-23T08:05:12.905Z,1017.16
2018-12-23T08:06:12.883Z,1017.10
2018-12-23T08:07:12.875Z,1017.08
2018-12-23T08:08:12.855Z,1017.09
2018-12-23T08:09:12.795Z,1017.03
2018-12-23T08:10:12.881Z,1017.05
2018-12-23T08:11:12.776Z,1017.06
2018-12-23T08:12:12.717Z,1017.04
2018-12-23T08:13:12.786Z,1017.00
2018-12-23T08:14:12.667Z,1017.01
2018-12-23T08:15:12.726Z,1016.97
2018-12-23T08:16:12.616Z,1016.95
2018-12-23T08:17:12.636Z,1016.94
2018-12-23T08:18:12.559Z,1016.99
2018-12-23T08:19:12.666Z,1017.02
2018-12-23T08:20:12.494Z,1016.99
2018-12-23T08:21:12.567Z,1016.97
2018-12-23T08:22:12.447Z,1016.97
2018-12-23T08:23:12.481Z,1016.96
2018-12-23T08:24:12.389Z,1016.99
2018-12-23T08:25:12.485Z,1016.95
2018-12-23T08:26:12.334Z,1017.01
2018-12-23T08:27:12.309Z,1017.08
2018-12-23T08:28:12.299Z,1017.08
2018-12-23T08:29:12.314Z,1017.06
2018-12-23T08:30:12.226Z,1017.11
2018-12-23T08:31:12.329Z,1017.04
2018-12-23T08:32:12.176Z,1017.12
2018-12-23T08:33:12.237Z,1017.06
2018-12-23T08:34:12.126Z,1017.10
2018-12-23T08:35:12.161Z,1017.09
2018-12-23T08:36:12.077Z,1017.09
2018-12-23T08:37:12.170Z,1017.07
2018-12-23T08:38:12.056Z,1017.08
2018-12-23T08:39:12.078Z,1017.12
2018-12-23T08:40:11.965Z,1017.09
2018-12-23T08:41:12.086Z,1017.07
2018-12-23T08:42:11.906Z,1017.06
2018-12-23T08:43:11.878Z,1017.09
2018-12-23T08:44:12.005Z,1017.09
2018-12-23T08:45:11.838Z,1017.11
2018-12-23T08:46:11.929Z,1017.06
2018-12-23T08:47:11.766Z,1017.08
2018-12-23T08:48:11.735Z,1017.06
2018-12-23T08:49:11.727Z,1017.05
2018-12-23T08:50:11.860Z,1017.10
2018-12-23T08:51:11.672Z,1017.04
2018-12-23T08:52:11.757Z,1017.04
2018-12-23T08:53:11.607Z,1017.03
2018-12-23T08:54:11.575Z,1017.14
2018-12-23T08:55:11.678Z,1017.13
2018-12-23T08:56:11.527Z,1017.16
2018-12-23T08:57:11.585Z,1017.11
2018-12-23T08:58:11.480Z,1017.14
2018-12-23T08:59:11.449Z,1017.15
2018-12-23T09:00:11.428Z,1017.09
2018-12-23T09:01:11.514Z,1017.05
2018-12-23T09:02:11.370Z,1017.08
2018-12-23T09:03:18.679Z,1017.05
2018-12-23T09:04:11.539Z,1017.04
2018-12-23T09:05:11.277Z,1017.04
2018-12-23T09:06:11.420Z,1017.06
2018-12-23T09:07:11.251Z,1016.99
2018-12-23T09:08:11.376Z,1017.02
2018-12-23T09:09:11.176Z,1017.13
2018-12-23T09:10:11.276Z,1017.07
2018-12-23T09:11:11.117Z,1017.03
2018-12-23T09:12:11.206Z,1017.04
2018-12-23T09:13:11.075Z,1017.01
2018-12-23T09:14:11.199Z,1017.06
2018-12-23T09:15:11.017Z,1017.05
2018-12-23T09:16:11.117Z,1017.01
2018-12-23T09:17:10.959Z,1017.04
2018-12-23T09:18:19.122Z,1017.02
2018-12-23T09:19:10.907Z,1017.06
2018-12-23T09:20:10.875Z,1017.02
2018-12-23T09:21:10.855Z,1017.04
2018-12-23T09:22:10.945Z,1017.05
2018-12-23T09:23:10.796Z,1017.00
2018-12-23T09:24:10.956Z,1017.02
2018-12-23T09:25:10.751Z,1016.95
2018-12-23T09:26:10.887Z,1016.91
2018-12-23T09:27:10.697Z,1016.94
2018-12-23T09:28:10.789Z,1016.97
2018-12-23T09:29:10.649Z,1016.91
2018-12-23T09:30:10.800Z,1016.88
2018-12-23T09:31:10.599Z,1016.83
2018-12-23T09:32:10.706Z,1016.85
2018-12-23T09:33:10.529Z,1016.82
2018-12-23T09:34:10.628Z,1016.81
2018-12-23T09:35:10.475Z,1016.82
2018-12-23T09:36:10.456Z,1016.84
2018-12-23T09:37:10.425Z,1016.80
2018-12-23T09:38:10.546Z,1016.80
2018-12-23T09:39:10.367Z,1016.84
2018-12-23T09:40:10.458Z,1016.80
2018-12-23T09:41:10.373Z,1016.77
2018-12-23T09:42:10.476Z,1016.75
2018-12-23T09:43:10.265Z,1016.72
2018-12-23T09:44:10.390Z,1016.73
2018-12-23T09:45:10.293Z,1016.72
2018-12-23T09:46:10.295Z,1016.74
2018-12-23T09:47:10.155Z,1016.78
2018-12-23T09:48:12.255Z,1016.75
2018-12-23T09:49:10.105Z,1016.78
2018-12-23T09:50:10.225Z,1016.74
2018-12-23T09:51:10.056Z,1016.72
2018-12-23T09:52:10.026Z,1016.71
2018-12-23T09:53:10.001Z,1016.71
2018-12-23T09:54:10.196Z,1016.70
2018-12-23T09:55:09.945Z,1016.67
2018-12-23T09:56:10.066Z,1016.63
2018-12-23T09:57:09.965Z,1016.63
2018-12-23T09:58:09.867Z,1016.58
2018-12-23T09:59:10.006Z,1016.56
2018-12-23T10:00:09.808Z,1016.54
2018-12-23T10:01:09.896Z,1016.53
2018-12-23T10:02:09.765Z,1016.45
2018-12-23T10:03:09.805Z,1016.53
2018-12-23T10:04:09.706Z,1016.46
2018-12-23T10:05:09.727Z,1016.45
2018-12-23T10:06:09.649Z,1016.38
2018-12-23T10:07:09.727Z,1016.44
2018-12-23T10:08:10.360Z,1016.43
2018-12-23T10:09:09.649Z,1016.42
2018-12-23T10:10:09.537Z,1016.43
2018-12-23T10:11:09.567Z,1016.36
2018-12-23T10:12:09.492Z,1016.36
2018-12-23T10:13:09.468Z,1016.37
2018-12-23T10:14:09.436Z,1016.38
2018-12-23T10:15:09.477Z,1016.36
2018-12-23T10:16:09.383Z,1016.33
2018-12-23T10:17:09.507Z,1016.36
2018-12-23T10:18:09.337Z,1016.27
2018-12-23T10:19:09.408Z,1016.29
2018-12-23T10:20:09.276Z,1016.26
2018-12-23T10:21:10.262Z,1016.27
2018-12-23T10:22:09.226Z,1016.25
2018-12-23T10:23:09.336Z,1016.26
2018-12-23T10:24:09.168Z,1016.25
2018-12-23T10:25:09.249Z,1016.21
2018-12-23T10:26:09.118Z,1016.18
2018-12-23T10:27:09.157Z,1016.17
2018-12-23T10:28:09.066Z,1016.20
2018-12-23T10:29:09.038Z,1016.21
2018-12-23T10:30:09.009Z,1016.13
2018-12-23T10:31:09.207Z,1016.15
2018-12-23T10:32:08.957Z,1016.17
2018-12-23T10:33:08.996Z,1016.16
2018-12-23T10:34:08.906Z,1016.13
2018-12-23T10:35:09.007Z,1016.11
2018-12-23T10:36:08.855Z,1016.09
2018-12-23T10:37:08.916Z,1016.08
2018-12-23T10:38:08.797Z,1016.03
2018-12-23T10:39:08.825Z,1016.07
2018-12-23T10:40:08.804Z,1016.04
2018-12-23T10:41:08.846Z,1016.06
2018-12-23T10:42:08.701Z,1016.12
2018-12-23T10:43:08.755Z,1016.02
2018-12-23T10:44:08.639Z,1015.98
2018-12-23T10:45:08.607Z,1015.99
2018-12-23T10:46:08.677Z,1015.92
2018-12-23T10:47:08.565Z,1015.93
2018-12-23T10:48:08.685Z,1015.86
2018-12-23T10:49:08.507Z,1015.86
2018-12-23T10:50:08.476Z,1015.89
2018-12-23T10:51:16.012Z,1015.86
2018-12-23T10:53:12.627Z,1015.85
2018-12-23T10:54:12.426Z,1015.83
2018-12-23T10:56:16.476Z,1015.77
2018-12-23T10:57:16.618Z,1015.74
2018-12-23T10:59:20.678Z,1015.72
2018-12-23T11:00:20.540Z,1015.62
2018-12-23T11:02:24.689Z,1015.57
2018-12-23T11:03:24.467Z,1015.59
2018-12-23T11:05:28.551Z,1015.59
2018-12-23T11:06:28.485Z,1015.56
2018-12-23T11:08:32.708Z,1015.53
2018-12-23T11:09:32.496Z,1015.56
2018-12-23T11:11:36.557Z,1015.47
2018-12-23T11:12:36.518Z,1015.43
2018-12-23T11:14:29.679Z,1015.42
2018-12-23T11:15:29.471Z,1015.49
2018-12-23T11:17:22.836Z,1015.42
2018-12-23T11:18:22.638Z,1015.40
2018-12-23T11:20:26.867Z,1015.42
2018-12-23T11:21:26.655Z,1015.38
2018-12-23T11:23:30.656Z,1015.35
2018-12-23T11:24:30.573Z,1015.29
2018-12-23T11:26:34.567Z,1015.32
2018-12-23T11:27:34.489Z,1015.23
2018-12-23T11:29:38.534Z,1015.12
2018-12-23T11:30:38.386Z,1015.08
2018-12-23T11:32:42.334Z,1015.02
2018-12-23T11:33:42.356Z,1015.01
2018-12-23T11:35:46.307Z,1015.00
2018-12-23T11:36:46.217Z,1015.03
2018-12-23T11:38:50.219Z,1015.01
2018-12-23T11:39:50.127Z,1014.94
2018-12-23T11:41:54.126Z,1014.94
2018-12-23T11:42:54.085Z,1014.88
2018-12-23T11:44:46.976Z,1014.88
2018-12-23T11:45:46.886Z,1014.87
2018-12-23T11:47:50.834Z,1014.88
2018-12-23T11:48:50.784Z,1014.87
2018-12-23T11:50:54.805Z,1014.78
2018-12-23T11:51:54.706Z,1014.75
2018-12-23T11:53:58.709Z,1014.76
2018-12-23T11:54:58.608Z,1014.76
2018-12-23T11:57:02.616Z,1014.71
2018-12-23T11:58:02.520Z,1014.70
2018-12-23T12:00:06.526Z,1014.54
2018-12-23T12:01:06.428Z,1014.59
2018-12-23T12:03:10.438Z,1014.53
2018-12-23T12:04:10.340Z,1014.58
2018-12-23T12:06:14.449Z,1014.47
2018-12-23T12:07:14.355Z,1014.46
2018-12-23T12:09:18.363Z,1014.46
2018-12-23T12:10:18.267Z,1014.46
2018-12-23T12:12:22.275Z,1014.40
2018-12-23T12:13:22.166Z,1014.40
2018-12-23T12:15:26.176Z,1014.35
2018-12-23T12:16:26.087Z,1014.35
2018-12-23T12:18:30.086Z,1014.31
2018-12-23T12:19:29.986Z,1014.26
2018-12-23T12:21:33.996Z,1014.26
2018-12-23T12:22:33.897Z,1014.23
2018-12-23T12:24:26.846Z,1014.20
2018-12-23T12:25:26.746Z,1014.18
2018-12-23T12:27:31.265Z,1014.18
2018-12-23T12:28:31.179Z,1014.10
2018-12-23T12:30:35.196Z,1014.10
2018-12-23T12:31:35.088Z,1014.09
2018-12-23T12:33:39.191Z,1014.10
2018-12-23T12:34:39.226Z,1014.03
2018-12-23T12:36:43.105Z,1014.03
2018-12-23T12:37:43.023Z,1014.00
2018-12-23T12:39:47.066Z,1013.94
2018-12-23T12:40:47.020Z,1013.94
2018-12-23T12:42:51.036Z,1013.93
2018-12-23T12:43:50.936Z,1013.88
2018-12-23T12:46:00.516Z,1013.84
2018-12-23T12:46:54.875Z,1013.85
2018-12-23T12:48:58.856Z,1013.75
2018-12-23T12:49:58.813Z,1013.77
2018-12-23T12:52:02.759Z,1013.69
2018-12-23T12:53:02.671Z,1013.61
2018-12-23T12:54:55.558Z,1013.57
2018-12-23T12:55:55.529Z,1013.51
2018-12-23T12:57:59.517Z,1013.39
2018-12-23T12:58:59.427Z,1013.35
2018-12-23T13:01:03.428Z,1013.31
2018-12-23T13:02:03.337Z,1013.27
2018-12-23T13:04:07.337Z,1013.24
2018-12-23T13:05:07.247Z,1013.21
2018-12-23T13:07:11.247Z,1013.16
2018-12-23T13:08:11.149Z,1013.18
2018-12-23T13:10:15.165Z,1013.18
2018-12-23T13:11:15.057Z,1013.20
2018-12-23T13:13:19.107Z,1013.11
2018-12-23T13:14:19.136Z,1013.08
2018-12-23T13:16:23.018Z,1013.08
2018-12-23T13:17:23.046Z,1013.05
2018-12-23T13:19:26.988Z,1013.05
2018-12-23T13:20:28.348Z,1013.04
2018-12-23T13:22:31.819Z,1012.96
2018-12-23T13:23:31.730Z,1012.93
2018-12-23T13:25:35.736Z,1013.00
2018-12-23T13:26:35.647Z,1012.97
2018-12-23T13:28:39.649Z,1013.00
2018-12-23T13:29:39.546Z,1012.98
2018-12-23T13:31:43.508Z,1012.88
2018-12-23T13:32:43.455Z,1012.78
2018-12-23T13:34:36.406Z,1012.73
2018-12-23T13:35:36.318Z,1012.78
2018-12-23T13:37:40.316Z,1012.77
2018-12-23T13:38:40.219Z,1012.75
2018-12-23T13:40:44.225Z,1012.74
2018-12-23T13:41:44.185Z,1012.69
2018-12-23T13:43:48.088Z,1012.60
2018-12-23T13:44:48.108Z,1012.59
2018-12-23T13:46:52.005Z,1012.50
2018-12-23T13:47:51.954Z,1012.50
2018-12-23T13:49:55.951Z,1012.45
2018-12-23T13:50:55.871Z,1012.47
2018-12-23T13:52:59.856Z,1012.44
2018-12-23T13:53:59.777Z,1012.44
2018-12-23T13:56:03.870Z,1012.34
2018-12-23T13:57:03.777Z,1012.29
2018-12-23T13:59:07.777Z,1012.20
2018-12-23T14:00:07.688Z,1012.16
2018-12-23T14:02:11.697Z,1012.10
2018-12-23T14:03:11.608Z,1012.11
2018-12-23T14:05:15.607Z,1012.06
2018-12-23T14:06:15.521Z,1012.05
2018-12-23T14:08:19.508Z,1012.08